createdAt,value
2019-05-29T00:46:58.640Z,99.90
2019-05-29T00:49:38.670Z,99.90
2019-05-29T02:09:20.166Z,99.90
2019-05-29T02:36:17.943Z,99.90
2019-05-29T02:38:56.728Z,99.90
2019-05-29T02:41:34.740Z,99.90
2019-05-29T02:44:14.480Z,99.90
2019-05-29T02:52:56.192Z,99.90
2019-05-29T02:55:45.572Z,99.90
2019-05-29T03:01:23.995Z,99.90
2019-05-29T03:14:58.443Z,99.90
2019-05-29T03:17:34.158Z,99.90
2019-05-29T03:20:17.094Z,99.90
2019-05-29T03:22:58.067Z,99.90
2019-05-29T03:28:44.747Z,99.90
2019-05-29T03:37:14.742Z,99.90
2019-05-29T03:39:49.315Z,99.90
2019-05-29T03:45:54.386Z,99.90
2019-05-29T03:48:49.714Z,99.90
2019-05-29T03:51:32.600Z,99.90
2019-05-29T03:54:10.471Z,99.90
2019-05-29T04:00:07.260Z,99.90
2019-05-29T04:02:44.195Z,99.90
2019-05-29T04:14:16.887Z,99.90
2019-05-29T04:20:08.399Z,99.90
2019-05-29T04:25:54.480Z,99.90
2019-05-29T04:28:43.342Z,99.90
2019-05-29T04:34:45.254Z,99.90
2019-05-29T04:37:34.310Z,99.90
2019-05-29T04:40:14.982Z,99.90
2019-05-29T04:43:04.256Z,99.90
2019-05-29T04:48:51.971Z,99.90
2019-05-29T04:51:31.084Z,99.90
2019-05-29T04:54:15.797Z,99.90
2019-05-29T04:56:51.503Z,99.90
2019-05-29T04:59:40.159Z,99.90
2019-05-29T05:02:27.527Z,99.90
2019-05-29T05:28:20.831Z,99.90
2019-05-29T05:31:03.294Z,99.90
2019-05-29T05:39:30.785Z,99.90
2019-05-29T05:42:17.756Z,99.90
2019-05-29T05:50:15.100Z,99.90
2019-05-29T05:59:27.601Z,99.90
2019-05-29T06:05:22.314Z,99.90
2019-05-29T06:22:49.826Z,99.90
2019-05-29T06:25:30.147Z,99.10
2019-05-29T06:28:15.630Z,99.10
2019-05-29T06:30:53.894Z,98.20
2019-05-29T06:33:35.834Z,98.30
2019-05-29T06:36:27.829Z,97.90
2019-05-29T06:38:59.294Z,97.40
2019-05-29T06:41:30.335Z,96.60
2019-05-29T06:44:00.639Z,97.30
2019-05-29T06:46:31.338Z,96.30
2019-05-29T06:49:01.671Z,96.50
2019-05-29T06:51:35.170Z,95.60
2019-05-29T06:54:05.167Z,95.30
2019-05-29T06:56:35.646Z,94.50
2019-05-29T06:59:07.494Z,94.40
2019-05-29T07:01:45.163Z,93.90
2019-05-29T07:04:14.989Z,93.90
2019-05-29T07:06:48.074Z,92.90
2019-05-29T07:09:23.647Z,93.00
2019-05-29T07:11:55.290Z,92.70
2019-05-29T07:14:34.420Z,92.40
2019-05-29T07:17:04.507Z,91.80
2019-05-29T07:19:49.081Z,91.50
2019-05-29T07:22:08.230Z,91.80
2019-05-29T07:24:39.017Z,91.70
2019-05-29T07:27:13.526Z,90.80
2019-05-29T07:29:45.250Z,91.70
2019-05-29T07:32:16.543Z,91.40
2019-05-29T07:35:03.846Z,90.90
2019-05-29T07:37:32.406Z,90.20
2019-05-29T07:40:09.205Z,89.10
2019-05-29T07:42:41.859Z,88.90
2019-05-29T07:45:25.275Z,88.30
2019-05-29T07:47:55.160Z,87.70
2019-05-29T07:50:27.211Z,85.90
2019-05-29T07:52:59.170Z,86.30
2019-05-29T07:55:30.606Z,85.30
2019-05-29T07:58:10.783Z,81.40
2019-05-29T08:01:06.789Z,83.70
2019-05-29T08:03:16.295Z,83.50
2019-05-29T08:06:05.737Z,82.80
2019-05-29T08:08:53.516Z,83.20
2019-05-29T08:17:52.345Z,77.00
2019-05-29T08:26:40.655Z,74.90
2019-05-29T08:29:16.331Z,71.30
2019-05-29T08:31:57.787Z,72.30
2019-05-29T08:37:31.314Z,71.60
2019-05-29T08:40:10.079Z,70.10
2019-05-29T08:42:51.439Z,70.10
2019-05-29T08:45:33.698Z,68.80
2019-05-29T08:48:13.408Z,68.50
2019-05-29T08:51:01.936Z,68.70
2019-05-29T08:53:59.547Z,68.00
2019-05-29T08:56:34.950Z,67.70
2019-05-29T08:59:07.493Z,68.60
2019-05-29T09:01:43.131Z,66.80
2019-05-29T09:04:13.275Z,64.10
2019-05-29T09:06:44.479Z,66.20
2019-05-29T09:09:19.267Z,67.20
2019-05-29T09:11:47.617Z,65.90
2019-05-29T09:14:25.359Z,64.40
2019-05-29T09:17:03.903Z,64.30
2019-05-29T09:19:40.932Z,64.70
2019-05-29T09:22:12.122Z,63.80
2019-05-29T09:24:59.101Z,63.00
2019-05-29T09:27:43.256Z,63.00
2019-05-29T09:30:09.083Z,62.90
2019-05-29T09:32:50.487Z,64.40
2019-05-29T09:35:26.092Z,60.40
2019-05-29T09:38:15.711Z,60.60
2019-05-29T09:40:53.025Z,62.20
2019-05-29T09:43:29.975Z,62.30
2019-05-29T09:46:02.191Z,60.50
2019-05-29T09:48:52.070Z,60.00
2019-05-29T10:22:51.734Z,61.40
2019-05-29T10:31:07.918Z,61.50
2019-05-29T10:34:09.893Z,60.90
2019-05-29T10:37:22.155Z,60.80
2019-05-29T10:39:54.423Z,60.20
2019-05-29T11:15:58.884Z,59.80
2019-05-29T11:37:31.945Z,62.20
2019-05-29T11:40:18.889Z,61.90
2019-05-29T11:53:47.716Z,63.60
2019-05-29T11:59:14.166Z,62.10
2019-05-29T12:01:50.815Z,63.10
2019-05-29T12:07:07.030Z,62.60
2019-05-29T12:09:38.248Z,62.80
2019-05-29T12:12:25.712Z,63.20
2019-05-29T12:18:19.041Z,63.00
2019-05-29T12:35:40.127Z,59.20
2019-05-29T12:38:36.650Z,60.10
2019-05-29T13:03:45.371Z,62.60
2019-05-29T13:30:21.530Z,60.70
2019-05-29T13:36:09.734Z,60.20
2019-05-29T13:45:17.069Z,59.70
2019-05-29T14:03:32.732Z,60.50
2019-05-29T14:14:25.816Z,60.50
2019-05-29T14:29:28.595Z,60.90
2019-05-29T16:15:20.469Z,63.90
2019-05-29T16:18:00.515Z,63.90
2019-05-29T16:23:35.187Z,64.00
2019-05-29T16:26:04.686Z,64.30
2019-05-29T16:28:58.427Z,64.00
2019-05-29T16:31:32.633Z,63.90
2019-05-29T16:34:18.863Z,64.10
2019-05-29T16:36:57.481Z,64.70
2019-05-29T16:54:02.214Z,64.70
2019-05-29T16:59:44.817Z,65.60
2019-05-29T17:02:21.910Z,65.90
2019-05-29T17:05:15.794Z,65.60
2019-05-29T17:35:44.287Z,65.20
2019-05-29T20:56:38.083Z,91.00
2019-05-29T21:39:30.585Z,92.90
2019-05-29T21:42:18.455Z,93.10
2019-05-29T22:57:02.056Z,94.70
2019-05-29T23:02:38.504Z,94.90
2019-05-29T23:08:18.527Z,95.00
2019-05-29T23:10:56.891Z,95.10
2019-05-29T23:16:48.711Z,95.30
2019-05-29T23:19:22.575Z,95.30
2019-05-29T23:22:04.649Z,95.50
2019-05-29T23:24:52.714Z,95.60
2019-05-29T23:27:34.153Z,95.60
2019-05-29T23:30:11.701Z,95.70
2019-05-29T23:32:49.505Z,95.70
2019-05-29T23:35:27.359Z,96.00
2019-05-29T23:38:05.139Z,96.10
2019-05-29T23:40:42.883Z,95.90
2019-05-29T23:43:23.265Z,96.10
2019-05-29T23:52:08.063Z,96.40
2019-05-29T23:55:11.219Z,96.50
2019-05-29T23:58:13.104Z,96.90
